Time;durP1;ratioP1;P1;durP2;ratioP2;P2;SDS_P1;SDS_P2;PMS_P1;PMS_P2;Temp;Humidity;BMP_temperature;BMP_pressure;BME280_temperature;BME280_humidity;BME280_pressure;Samples;Min_cycle;Max_cycle;Signal;HPM_P1;HPM_P2
2023/10/23 00:00:44;;;;;;;;;;;;;;;;;;112865;210;38501;-42
2023/10/23 00:03:37;;;;;;;;;;;;;;;;;;112791;210;42183;-42
2023/10/23 00:06:09;;;;;;;;;;;;;;;;;;112775;210;42490;-42
2023/10/23 00:08:43;;;;;;;;;;;;;;;;;;112765;210;41588;-42
2023/10/23 00:11:26;;;;;;;;;;;;;;;;;;112608;210;175760;-42
2023/10/23 00:13:57;;;;;;;;;;;;;;;;;;112719;210;40781;-43
2023/10/23 00:16:31;;;;;;;;;;;;;;;;;;112750;210;42484;-42
2023/10/23 00:19:05;;;;;;;;;;;;;;;;;;112754;210;42769;-42
2023/10/23 00:21:42;;;;;;;;;;;;;;;;;;112747;210;39831;-42
2023/10/23 00:24:15;;;;;;;;;;;;;;;;;;112702;210;39395;-43
2023/10/23 00:26:50;;;;;;;;;;;;;;;;;;112662;210;175648;-42
2023/10/23 00:29:25;;;;;;;;;;;;;;;;;;112753;210;41896;-42
2023/10/23 00:31:59;;;;;;;;;;;;;;;;;;112714;210;38753;-42
2023/10/23 00:34:33;;;;;;;;;;;;;;;;;;112757;210;39313;-42
2023/10/23 00:37:06;;;;;;;;;;;;;;;;;;112777;210;42831;-42
2023/10/23 00:39:39;;;;;;;;;;;;;;;;;;112645;210;175667;-42
2023/10/23 00:42:13;;;;;;;;;;;;;;;;;;112659;210;39887;-43
2023/10/23 00:44:47;;;;;;;;;;;;;;;;;;112676;210;39466;-42
2023/10/23 00:47:21;;;;;;;;;;;;;;;;;;112803;210;42725;-43
2023/10/23 00:49:55;;;;;;;;;;;;;;;;;;112787;210;41634;-42
2023/10/23 00:52:29;;;;;;;;;;;;;;;;;;112797;210;38481;-43
2023/10/23 00:55:03;;;;;;;;;;;;;;;;;;112728;210;39712;-42
2023/10/23 00:57:38;;;;;;;;;;;;;;;;;;112819;210;42510;-42
2023/10/23 01:00:15;;;;;;;;;;;;;;;;;;112805;210;41829;-42
2023/10/23 01:02:49;;;;;;;;;;;;;;;;;;112778;210;40117;-42
2023/10/23 01:05:26;;;;;;;;;;;;;;;;;;112744;210;39577;-44
2023/10/23 01:08:01;;;;;;;;;;;;;;;;;;112776;210;42521;-42
2023/10/23 01:10:34;;;;;;;;;;;;;;;;;;112780;210;41467;-44
2023/10/23 01:13:08;;;;;;;;;;;;;;;;;;112792;210;38504;-44
2023/10/23 01:15:43;;;;;;;;;;;;;;;;;;112735;210;39318;-42
2023/10/23 01:18:18;;;;;;;;;;;;;;;;;;112779;210;42648;-42
2023/10/23 01:20:52;;;;;;;;;;;;;;;;;;112668;210;175695;-43
2023/10/23 01:23:29;;;;;;;;;;;;;;;;;;112751;210;39475;-43
2023/10/23 01:26:02;;;;;;;;;;;;;;;;;;112707;210;39546;-44
2023/10/23 01:28:34;;;;;;;;;;;;;;;;;;112770;210;42741;-44
2023/10/23 01:31:07;;;;;;;;;;;;;;;;;;112775;210;42703;-42
2023/10/23 01:33:45;;;;;;;;;;;;;;;;;;112725;210;38488;-42
2023/10/23 01:36:17;;;;;;;;;;;;;;;;;;112734;210;39459;-42
2023/10/23 01:38:54;;;;;;;;;;;;;;;;;;112733;210;42562;-42
2023/10/23 01:41:30;;;;;;;;;;;;;;;;;;112753;210;41644;-42
2023/10/23 01:44:04;;;;;;;;;;;;;;;;;;112758;210;38676;-43
2023/10/23 01:46:37;;;;;;;;;;;;;;;;;;112695;210;39380;-44
2023/10/23 01:49:11;;;;;;;;;;;;;;;;;;112751;210;44084;-42
2023/10/23 01:51:46;;;;;;;;;;;;;;;;;;112760;210;41413;-43
2023/10/23 01:54:19;;;;;;;;;;;;;;;;;;112709;210;38675;-43
2023/10/23 01:56:55;;;;;;;;;;;;;;;;;;112681;210;39385;-42
2023/10/23 01:59:29;;;;;;;;;;;;;;;;;;112707;210;42811;-43
2023/10/23 02:02:03;;;;;;;;;;;;;;;;;;112717;210;41410;-42
2023/10/23 02:04:39;;;;;;;;;;;;;;;;;;112748;210;38703;-43
2023/10/23 02:07:14;;;;;;;;;;;;;;;;;;112648;210;39763;-42
2023/10/23 02:09:54;;;;;;;;;;;;;;;;;;112737;210;43782;-43
2023/10/23 02:12:26;;;;;;;;;;;;;;;;;;112771;210;41418;-42
2023/10/23 02:14:59;;;;;;;;;;;;;;;;;;112786;210;38439;-43
2023/10/23 02:17:33;;;;;;;;;;;;;;;;;;112597;210;175183;-42
2023/10/23 02:20:07;;;;;;;;;;;;;;;;;;112752;210;42736;-43
2023/10/23 02:22:41;;;;;;;;;;;;;;;;;;112784;210;42566;-41
2023/10/23 02:25:17;;;;;;;;;;;;;;;;;;112780;210;38769;-41
2023/10/23 02:27:49;;;;;;;;;;;;;;;;;;112758;210;39573;-43
2023/10/23 02:30:22;;;;;;;;;;;;;;;;;;112760;210;42597;-42
2023/10/23 02:32:57;;;;;;;;;;;;;;;;;;112769;210;41461;-42
2023/10/23 02:35:37;;;;;;;;;;;;;;;;;;112632;210;175169;-42
2023/10/23 02:38:09;;;;;;;;;;;;;;;;;;112698;210;39276;-42
2023/10/23 02:40:50;;;;;;;;;;;;;;;;;;112746;210;42726;-42
2023/10/23 02:43:29;;;;;;;;;;;;;;;;;;112763;210;41735;-43
2023/10/23 02:46:05;;;;;;;;;;;;;;;;;;112734;210;38880;-42
2023/10/23 02:48:38;;;;;;;;;;;;;;;;;;112388;210;632374;-42
2023/10/23 02:51:12;;;;;;;;;;;;;;;;;;112642;210;175738;-42
2023/10/23 02:53:45;;;;;;;;;;;;;;;;;;112749;210;41604;-42
2023/10/23 02:56:22;;;;;;;;;;;;;;;;;;112751;210;38520;-42
2023/10/23 02:58:54;;;;;;;;;;;;;;;;;;112700;210;44464;-43
2023/10/23 03:01:30;;;;;;;;;;;;;;;;;;112094;210;895593;-42
2023/10/23 03:04:05;;;;;;;;;;;;;;;;;;112746;210;41587;-43
2023/10/23 03:06:37;;;;;;;;;;;;;;;;;;112756;210;38450;-43
2023/10/23 03:09:11;;;;;;;;;;;;;;;;;;112697;210;45563;-42
2023/10/23 03:11:44;;;;;;;;;;;;;;;;;;112760;210;42549;-44
2023/10/23 03:14:16;;;;;;;;;;;;;;;;;;112813;210;41360;-44
2023/10/23 03:16:48;;;;;;;;;;;;;;;;;;112694;210;175712;-43
2023/10/23 03:19:24;;;;;;;;;;;;;;;;;;112774;210;39528;-44
2023/10/23 03:21:57;;;;;;;;;;;;;;;;;;112774;210;42909;-43
2023/10/23 03:24:29;;;;;;;;;;;;;;;;;;112812;210;41550;-42
2023/10/23 03:27:01;;;;;;;;;;;;;;;;;;112146;210;896527;-42
2023/10/23 03:29:33;;;;;;;;;;;;;;;;;;112723;210;39699;-42
2023/10/23 03:32:07;;;;;;;;;;;;;;;;;;112767;210;42799;-42
2023/10/23 03:34:41;;;;;;;;;;;;;;;;;;112784;210;41426;-43
2023/10/23 03:37:15;;;;;;;;;;;;;;;;;;112831;210;38742;-42
2023/10/23 03:39:49;;;;;;;;;;;;;;;;;;112730;210;46469;-42
2023/10/23 03:42:22;;;;;;;;;;;;;;;;;;112815;210;43025;-43
2023/10/23 03:44:56;;;;;;;;;;;;;;;;;;112860;210;41765;-43
2023/10/23 03:47:29;;;;;;;;;;;;;;;;;;112829;210;38875;-42
2023/10/23 03:50:01;;;;;;;;;;;;;;;;;;112805;210;45210;-43
2023/10/23 03:52:35;;;;;;;;;;;;;;;;;;112827;210;42489;-42
2023/10/23 03:55:08;;;;;;;;;;;;;;;;;;112800;210;41393;-43
2023/10/23 03:57:40;;;;;;;;;;;;;;;;;;112790;210;38702;-43
2023/10/23 04:00:15;;;;;;;;;;;;;;;;;;112626;210;198331;-42
2023/10/23 04:02:48;;;;;;;;;;;;;;;;;;112807;210;42493;-44
2023/10/23 04:05:21;;;;;;;;;;;;;;;;;;112813;210;41811;-43
2023/10/23 04:07:52;;;;;;;;;;;;;;;;;;112818;210;39062;-43
2023/10/23 04:10:28;;;;;;;;;;;;;;;;;;112808;210;44644;-43
2023/10/23 04:13:01;;;;;;;;;;;;;;;;;;112749;210;42947;-43
2023/10/23 04:15:35;;;;;;;;;;;;;;;;;;112766;210;42173;-46
2023/10/23 04:18:08;;;;;;;;;;;;;;;;;;112804;210;38952;-42
2023/10/23 04:20:44;;;;;;;;;;;;;;;;;;112710;210;45470;-43
2023/10/23 04:23:18;;;;;;;;;;;;;;;;;;112765;210;42806;-43
2023/10/23 04:25:57;;;;;;;;;;;;;;;;;;112753;210;42937;-43
2023/10/23 04:28:31;;;;;;;;;;;;;;;;;;112697;210;39814;-42
2023/10/23 04:31:06;;;;;;;;;;;;;;;;;;112602;210;175625;-42
2023/10/23 04:33:40;;;;;;;;;;;;;;;;;;112749;210;42870;-43
2023/10/23 04:36:14;;;;;;;;;;;;;;;;;;112725;210;41678;-43
2023/10/23 04:38:50;;;;;;;;;;;;;;;;;;112703;210;39921;-43
2023/10/23 04:41:25;;;;;;;;;;;;;;;;;;112752;210;46040;-43
2023/10/23 04:43:58;;;;;;;;;;;;;;;;;;112732;210;42738;-43
2023/10/23 04:46:30;;;;;;;;;;;;;;;;;;112667;210;175661;-43
2023/10/23 04:49:05;;;;;;;;;;;;;;;;;;112701;210;39027;-43
2023/10/23 04:51:37;;;;;;;;;;;;;;;;;;112797;210;45198;-43
2023/10/23 04:54:11;;;;;;;;;;;;;;;;;;112759;210;42911;-43
2023/10/23 04:56:45;;;;;;;;;;;;;;;;;;112752;210;41663;-43
2023/10/23 04:59:19;;;;;;;;;;;;;;;;;;112696;210;38892;-43
2023/10/23 05:01:52;;;;;;;;;;;;;;;;;;112799;210;46884;-43
2023/10/23 05:04:26;;;;;;;;;;;;;;;;;;112765;210;43114;-43
2023/10/23 05:06:59;;;;;;;;;;;;;;;;;;112765;210;41624;-43
2023/10/23 05:09:33;;;;;;;;;;;;;;;;;;112731;210;39010;-45
2023/10/23 05:12:08;;;;;;;;;;;;;;;;;;112637;210;175638;-43
2023/10/23 05:14:42;;;;;;;;;;;;;;;;;;112755;210;43784;-41
2023/10/23 05:17:16;;;;;;;;;;;;;;;;;;112740;210;41726;-41
2023/10/23 05:19:49;;;;;;;;;;;;;;;;;;112589;210;175651;-43
2023/10/23 05:22:21;;;;;;;;;;;;;;;;;;112778;210;46826;-43
2023/10/23 05:24:54;;;;;;;;;;;;;;;;;;112817;210;43250;-43
2023/10/23 05:27:27;;;;;;;;;;;;;;;;;;112825;210;43183;-41
2023/10/23 05:30:00;;;;;;;;;;;;;;;;;;112784;210;38886;-41
2023/10/23 05:32:31;;;;;;;;;;;;;;;;;;112762;210;39642;-43
2023/10/23 05:35:07;;;;;;;;;;;;;;;;;;112749;210;42703;-42
2023/10/23 05:37:41;;;;;;;;;;;;;;;;;;112773;210;41445;-42
2023/10/23 05:40:14;;;;;;;;;;;;;;;;;;112732;210;38716;-41
2023/10/23 05:42:46;;;;;;;;;;;;;;;;;;112775;210;45838;-42
2023/10/23 05:45:20;;;;;;;;;;;;;;;;;;112767;210;42955;-43
2023/10/23 05:47:53;;;;;;;;;;;;;;;;;;112747;210;41624;-43
2023/10/23 05:50:26;;;;;;;;;;;;;;;;;;112749;210;38809;-42
2023/10/23 05:53:00;;;;;;;;;;;;;;;;;;112737;210;46974;-42
2023/10/23 05:55:39;;;;;;;;;;;;;;;;;;112754;210;43088;-42
2023/10/23 05:58:14;;;;;;;;;;;;;;;;;;112749;210;41503;-42
2023/10/23 06:00:48;;;;;;;;;;;;;;;;;;112689;210;38696;-42
2023/10/23 06:03:24;;;;;;;;;;;;;;;;;;112780;210;39706;-41
2023/10/23 06:05:57;;;;;;;;;;;;;;;;;;112787;210;42851;-45
2023/10/23 06:08:29;;;;;;;;;;;;;;;;;;112745;210;41639;-44
2023/10/23 06:11:04;;;;;;;;;;;;;;;;;;112735;210;39016;-42
2023/10/23 06:13:38;;;;;;;;;;;;;;;;;;112797;210;39607;-43
2023/10/23 06:16:16;;;;;;;;;;;;;;;;;;112795;210;42756;-42
2023/10/23 06:18:48;;;;;;;;;;;;;;;;;;112812;210;41637;-43
2023/10/23 06:21:23;;;;;;;;;;;;;;;;;;112488;210;175680;-42
2023/10/23 06:23:55;;;;;;;;;;;;;;;;;;112794;210;39247;-43
2023/10/23 06:26:32;;;;;;;;;;;;;;;;;;112720;210;43790;-46
2023/10/23 06:29:10;;;;;;;;;;;;;;;;;;112579;210;41626;-41
2023/10/23 06:31:42;;;;;;;;;;;;;;;;;;112697;210;39803;-41
2023/10/23 06:34:18;;;;;;;;;;;;;;;;;;112651;210;39560;-42
2023/10/23 06:36:52;;;;;;;;;;;;;;;;;;112614;210;42572;-41
2023/10/23 06:39:27;;;;;;;;;;;;;;;;;;112636;210;42139;-42
2023/10/23 06:42:04;;;;;;;;;;;;;;;;;;112391;210;175126;-39
2023/10/23 06:44:38;;;;;;;;;;;;;;;;;;112755;210;39689;-39
2023/10/23 06:47:10;;;;;;;;;;;;;;;;;;112788;210;44225;-39
2023/10/23 06:49:45;;;;;;;;;;;;;;;;;;112862;210;42100;-41
2023/10/23 06:52:16;;;;;;;;;;;;;;;;;;112663;210;38710;-39
2023/10/23 06:54:48;;;;;;;;;;;;;;;;;;112737;210;39508;-36
2023/10/23 06:57:20;;;;;;;;;;;;;;;;;;112750;211;43033;-36
2023/10/23 06:59:54;;;;;;;;;;;;;;;;;;112712;210;41988;-39
2023/10/23 07:02:28;;;;;;;;;;;;;;;;;;112724;210;38897;-36
2023/10/23 07:05:04;;;;;;;;;;;;;;;;;;112783;210;39730;-39
2023/10/23 07:07:39;;;;;;;;;;;;;;;;;;112752;210;42985;-38
2023/10/23 07:10:14;;;;;;;;;;;;;;;;;;112788;210;41909;-38
2023/10/23 07:12:47;;;;;;;;;;;;;;;;;;112722;210;38426;-38
2023/10/23 07:15:23;;;;;;;;;;;;;;;;;;112796;210;39758;-41
2023/10/23 07:17:56;;;;;;;;;;;;;;;;;;112814;210;42540;-38
2023/10/23 07:20:28;;;;;;;;;;;;;;;;;;112708;210;41645;-37
2023/10/23 07:23:00;;;;;;;;;;;;;;;;;;112727;210;38691;-38
2023/10/23 07:25:37;;;;;;;;;;;;;;;;;;112086;210;894726;-39
2023/10/23 07:28:10;;;;;;;;;;;;;;;;;;112759;210;42949;-40
2023/10/23 07:30:42;;;;;;;;;;;;;;;;;;112765;210;42825;-39
2023/10/23 07:33:14;;;;;;;;;;;;;;;;;;112725;209;38759;-41
2023/10/23 07:35:48;;;;;;;;;;;;;;;;;;112960;209;39319;-41
2023/10/23 07:38:26;;;;;;;;;;;;;;;;;;112947;209;42857;-41
2023/10/23 07:41:03;;;;;;;;;;;;;;;;;;112898;209;42034;-40
2023/10/23 07:43:38;;;;;;;;;;;;;;;;;;112839;209;38446;-37
2023/10/23 07:46:15;;;;;;;;;;;;;;;;;;112775;209;175340;-39
2023/10/23 07:48:50;;;;;;;;;;;;;;;;;;112885;209;42920;-37
2023/10/23 07:51:25;;;;;;;;;;;;;;;;;;112793;210;42109;-38
2023/10/23 07:53:58;;;;;;;;;;;;;;;;;;112645;210;38781;-36
2023/10/23 07:56:32;;;;;;;;;;;;;;;;;;112713;210;39801;-36
2023/10/23 07:59:06;;;;;;;;;;;;;;;;;;112706;210;43049;-36
2023/10/23 08:01:38;;;;;;;;;;;;;;;;;;112711;210;41637;-38
2023/10/23 08:04:12;;;;;;;;;;;;;;;;;;112654;210;38942;-37
2023/10/23 08:06:45;;;;;;;;;;;;;;;;;;112714;210;39573;-37
2023/10/23 08:09:18;;;;;;;;;;;;;;;;;;112735;210;44101;-38
2023/10/23 08:11:52;;;;;;;;;;;;;;;;;;112719;210;42805;-38
2023/10/23 08:14:27;;;;;;;;;;;;;;;;;;112599;210;40271;-38
2023/10/23 08:16:59;;;;;;;;;;;;;;;;;;112681;210;39707;-37
2023/10/23 08:19:33;;;;;;;;;;;;;;;;;;112724;210;42945;-37
2023/10/23 08:22:10;;;;;;;;;;;;;;;;;;112709;210;41747;-38
2023/10/23 08:24:44;;;;;;;;;;;;;;;;;;112668;210;38470;-37
2023/10/23 08:27:20;;;;;;;;;;;;;;;;;;112771;210;39553;-37
2023/10/23 08:29:58;;;;;;;;;;;;;;;;;;112697;210;42769;-38
2023/10/23 08:32:35;;;;;;;;;;;;;;;;;;112691;210;41614;-38
2023/10/23 08:35:20;;;;;;;;;;;;;;;;;;112533;210;38731;-37
2023/10/23 08:37:53;;;;;;;;;;;;;;;;;;112640;210;39966;-38
2023/10/23 08:40:26;;;;;;;;;;;;;;;;;;112592;210;43019;-37
2023/10/23 08:43:00;;;;;;;;;;;;;;;;;;112544;210;41770;-38
2023/10/23 08:45:33;;;;;;;;;;;;;;;;;;112601;210;38992;-39
2023/10/23 08:48:11;;;;;;;;;;;;;;;;;;112624;210;40028;-34
2023/10/23 08:50:46;;;;;;;;;;;;;;;;;;112597;210;43806;-35
2023/10/23 08:53:20;;;;;;;;;;;;;;;;;;112646;210;41829;-40
2023/10/23 08:55:52;;;;;;;;;;;;;;;;;;112524;210;38717;-39
2023/10/23 08:58:27;;;;;;;;;;;;;;;;;;112603;210;39692;-37
2023/10/23 09:01:06;;;;;;;;;;;;;;;;;;112570;210;42821;-37
2023/10/23 09:03:41;;;;;;;;;;;;;;;;;;112499;210;175580;-36
2023/10/23 09:06:35;;;;;;;;;;;;;;;;;;112671;210;40041;-38
2023/10/23 09:09:08;;;;;;;;;;;;;;;;;;112673;210;39610;-38
2023/10/23 09:11:45;;;;;;;;;;;;;;;;;;112660;210;42686;-37
2023/10/23 09:14:26;;;;;;;;;;;;;;;;;;112639;210;41987;-39
2023/10/23 09:17:00;;;;;;;;;;;;;;;;;;112713;210;44578;-39
2023/10/23 09:19:38;;;;;;;;;;;;;;;;;;112547;210;40005;-40
2023/10/23 09:22:11;;;;;;;;;;;;;;;;;;112591;210;42883;-36
2023/10/23 09:24:45;;;;;;;;;;;;;;;;;;112612;210;41833;-35
2023/10/23 09:27:19;;;;;;;;;;;;;;;;;;112730;210;44870;-37
2023/10/23 09:30:03;;;;;;;;;;;;;;;;;;112565;210;39743;-37
2023/10/23 09:32:37;;;;;;;;;;;;;;;;;;112560;210;43343;-39
2023/10/23 09:35:12;;;;;;;;;;;;;;;;;;112551;210;41870;-37
2023/10/23 09:37:47;;;;;;;;;;;;;;;;;;112554;210;44824;-38
2023/10/23 09:40:23;;;;;;;;;;;;;;;;;;112572;210;39516;-37
2023/10/23 09:43:01;;;;;;;;;;;;;;;;;;112536;210;42923;-41
2023/10/23 09:45:37;;;;;;;;;;;;;;;;;;112550;210;41962;-38
2023/10/23 09:48:12;;;;;;;;;;;;;;;;;;112496;210;38615;-38
2023/10/23 09:50:45;;;;;;;;;;;;;;;;;;112621;210;39923;-38
2023/10/23 09:53:19;;;;;;;;;;;;;;;;;;112660;210;42974;-36
2023/10/23 09:55:53;;;;;;;;;;;;;;;;;;112622;210;41615;-39
2023/10/23 09:58:28;;;;;;;;;;;;;;;;;;112608;210;38835;-39
2023/10/23 10:01:04;;;;;;;;;;;;;;;;;;112695;210;39665;-39
2023/10/23 10:03:43;;;;;;;;;;;;;;;;;;112743;210;43960;-39
2023/10/23 10:06:20;;;;;;;;;;;;;;;;;;112680;210;42639;-39
2023/10/23 10:08:57;;;;;;;;;;;;;;;;;;112740;210;38513;-39
2023/10/23 10:11:36;;;;;;;;;;;;;;;;;;112733;210;39490;-39
2023/10/23 10:14:13;;;;;;;;;;;;;;;;;;112774;210;42902;-38
2023/10/23 10:16:56;;;;;;;;;;;;;;;;;;112643;210;41612;-37
2023/10/23 10:19:36;;;;;;;;;;;;;;;;;;112663;210;38735;-37
2023/10/23 10:22:17;;;;;;;;;;;;;;;;;;112613;210;39738;-36
2023/10/23 10:24:52;;;;;;;;;;;;;;;;;;112592;211;42868;-36
2023/10/23 10:27:30;;;;;;;;;;;;;;;;;;112536;211;41600;-38
2023/10/23 10:30:28;;;;;;;;;;;;;;;;;;112614;210;38759;-40
2023/10/23 10:33:04;;;;;;;;;;;;;;;;;;112609;210;39448;-38
2023/10/23 10:36:00;;;;;;;;;;;;;;;;;;112672;210;42497;-42
2023/10/23 10:38:36;;;;;;;;;;;;;;;;;;112602;210;41539;-42
2023/10/23 10:41:18;;;;;;;;;;;;;;;;;;112706;210;38792;-43
2023/10/23 10:43:56;;;;;;;;;;;;;;;;;;112659;210;39704;-43
2023/10/23 10:46:30;;;;;;;;;;;;;;;;;;112680;210;42503;-41
2023/10/23 10:49:07;;;;;;;;;;;;;;;;;;111950;210;740302;-38
2023/10/23 10:51:44;;;;;;;;;;;;;;;;;;112627;210;38482;-47
2023/10/23 10:54:17;;;;;;;;;;;;;;;;;;112624;210;39280;-42
2023/10/23 10:56:52;;;;;;;;;;;;;;;;;;112660;210;42581;-39
2023/10/23 10:59:29;;;;;;;;;;;;;;;;;;112611;210;47435;-43
2023/10/23 11:02:02;;;;;;;;;;;;;;;;;;112719;210;40085;-41
2023/10/23 11:04:42;;;;;;;;;;;;;;;;;;112699;210;39793;-43
2023/10/23 11:07:15;;;;;;;;;;;;;;;;;;112652;210;42548;-44
2023/10/23 11:09:48;;;;;;;;;;;;;;;;;;112675;210;41671;-42
2023/10/23 11:12:24;;;;;;;;;;;;;;;;;;112718;210;40286;-44
2023/10/23 11:14:57;;;;;;;;;;;;;;;;;;112652;210;40902;-44
2023/10/23 11:17:35;;;;;;;;;;;;;;;;;;112661;210;44167;-44
2023/10/23 11:20:18;;;;;;;;;;;;;;;;;;112558;210;47826;-42
2023/10/23 11:22:54;;;;;;;;;;;;;;;;;;112621;210;40022;-38
2023/10/23 11:25:30;;;;;;;;;;;;;;;;;;112677;210;40827;-38
2023/10/23 11:28:09;;;;;;;;;;;;;;;;;;112659;210;44058;-40
2023/10/23 11:30:51;;;;;;;;;;;;;;;;;;112519;210;42906;-41
2023/10/23 11:33:26;;;;;;;;;;;;;;;;;;112580;210;38836;-40
2023/10/23 11:36:05;;;;;;;;;;;;;;;;;;112681;210;39782;-39
2023/10/23 11:38:41;;;;;;;;;;;;;;;;;;112615;210;42826;-40
2023/10/23 11:41:15;;;;;;;;;;;;;;;;;;112665;210;41641;-39
2023/10/23 11:43:50;;;;;;;;;;;;;;;;;;112688;210;40294;-40
2023/10/23 11:46:26;;;;;;;;;;;;;;;;;;112699;210;39642;-38
2023/10/23 11:49:05;;;;;;;;;;;;;;;;;;112376;211;42896;-38
2023/10/23 11:51:37;;;;;;;;;;;;;;;;;;112626;210;41690;-39
2023/10/23 11:54:09;;;;;;;;;;;;;;;;;;112652;210;38740;-39
2023/10/23 11:56:46;;;;;;;;;;;;;;;;;;112669;210;39715;-39
2023/10/23 11:59:25;;;;;;;;;;;;;;;;;;112654;210;42776;-40
2023/10/23 12:01:59;;;;;;;;;;;;;;;;;;112705;210;41642;-41
2023/10/23 12:04:36;;;;;;;;;;;;;;;;;;112686;210;38695;-38
2023/10/23 12:07:09;;;;;;;;;;;;;;;;;;112613;210;39586;-40
2023/10/23 12:09:43;;;;;;;;;;;;;;;;;;112653;210;42568;-40
2023/10/23 12:12:18;;;;;;;;;;;;;;;;;;112627;210;41813;-40
2023/10/23 12:14:52;;;;;;;;;;;;;;;;;;112606;210;38715;-38
2023/10/23 12:17:27;;;;;;;;;;;;;;;;;;112489;210;175641;-43
2023/10/23 12:20:06;;;;;;;;;;;;;;;;;;112650;210;43163;-42
2023/10/23 12:22:42;;;;;;;;;;;;;;;;;;112551;210;175625;-39
2023/10/23 12:25:17;;;;;;;;;;;;;;;;;;112634;210;38933;-43
2023/10/23 12:27:53;;;;;;;;;;;;;;;;;;112956;210;39433;-44
2023/10/23 12:30:30;;;;;;;;;;;;;;;;;;112712;210;43007;-44
2023/10/23 12:33:09;;;;;;;;;;;;;;;;;;112514;210;41654;-44
2023/10/23 12:35:56;;;;;;;;;;;;;;;;;;112553;210;38447;-44
2023/10/23 12:38:33;;;;;;;;;;;;;;;;;;112625;211;39274;-44
2023/10/23 12:41:08;;;;;;;;;;;;;;;;;;112605;210;42508;-44
2023/10/23 12:43:41;;;;;;;;;;;;;;;;;;112577;210;41613;-44
2023/10/23 12:46:19;;;;;;;;;;;;;;;;;;112624;210;40959;-44
2023/10/23 12:48:57;;;;;;;;;;;;;;;;;;112595;210;39587;-44
2023/10/23 12:51:32;;;;;;;;;;;;;;;;;;112333;210;44404;-44
2023/10/23 12:54:09;;;;;;;;;;;;;;;;;;112577;210;41513;-44
2023/10/23 12:56:47;;;;;;;;;;;;;;;;;;112639;210;38723;-44
2023/10/23 12:59:23;;;;;;;;;;;;;;;;;;112630;210;38496;-44
2023/10/23 13:01:59;;;;;;;;;;;;;;;;;;112595;210;43105;-43
2023/10/23 13:04:34;;;;;;;;;;;;;;;;;;112612;210;41540;-43
2023/10/23 13:07:09;;;;;;;;;;;;;;;;;;112633;210;38618;-43
2023/10/23 13:09:44;;;;;;;;;;;;;;;;;;112648;210;39578;-44
2023/10/23 13:12:22;;;;;;;;;;;;;;;;;;112575;210;48773;-44
2023/10/23 13:14:54;;;;;;;;;;;;;;;;;;112616;210;41637;-43
2023/10/23 13:17:30;;;;;;;;;;;;;;;;;;112689;210;38697;-43
2023/10/23 13:20:06;;;;;;;;;;;;;;;;;;112661;210;39728;-45
2023/10/23 13:23:01;;;;;;;;;;;;;;;;;;112616;210;48565;-43
2023/10/23 13:25:34;;;;;;;;;;;;;;;;;;112673;210;41618;-44
2023/10/23 13:28:10;;;;;;;;;;;;;;;;;;112641;210;38660;-44
2023/10/23 13:30:44;;;;;;;;;;;;;;;;;;112669;210;39823;-43
2023/10/23 13:33:18;;;;;;;;;;;;;;;;;;112606;210;49706;-43
2023/10/23 13:35:51;;;;;;;;;;;;;;;;;;112531;210;194977;-43
2023/10/23 13:38:26;;;;;;;;;;;;;;;;;;112670;210;38910;-45
2023/10/23 13:41:00;;;;;;;;;;;;;;;;;;112636;210;39797;-44
2023/10/23 13:43:32;;;;;;;;;;;;;;;;;;112794;210;47824;-46
2023/10/23 13:46:05;;;;;;;;;;;;;;;;;;112660;210;43034;-44
2023/10/23 13:48:36;;;;;;;;;;;;;;;;;;112719;210;38705;-44
2023/10/23 13:51:12;;;;;;;;;;;;;;;;;;112680;210;39809;-45
2023/10/23 13:53:46;;;;;;;;;;;;;;;;;;112562;210;48456;-46
2023/10/23 13:56:20;;;;;;;;;;;;;;;;;;112684;210;42183;-47
2023/10/23 13:58:54;;;;;;;;;;;;;;;;;;112642;210;38924;-47
2023/10/23 14:01:26;;;;;;;;;;;;;;;;;;112687;210;39658;-44
2023/10/23 14:03:59;;;;;;;;;;;;;;;;;;112706;210;48535;-45
2023/10/23 14:06:34;;;;;;;;;;;;;;;;;;112638;210;41686;-43
2023/10/23 14:09:10;;;;;;;;;;;;;;;;;;112625;210;39067;-45
2023/10/23 14:12:09;;;;;;;;;;;;;;;;;;112548;210;39781;-45
2023/10/23 14:14:43;;;;;;;;;;;;;;;;;;112692;210;42915;-44
2023/10/23 14:17:24;;;;;;;;;;;;;;;;;;112583;210;42768;-46
2023/10/23 14:19:59;;;;;;;;;;;;;;;;;;112682;210;38698;-44
2023/10/23 14:22:38;;;;;;;;;;;;;;;;;;112539;210;39808;-43
2023/10/23 14:25:17;;;;;;;;;;;;;;;;;;112549;210;43154;-44
2023/10/23 14:27:50;;;;;;;;;;;;;;;;;;112643;210;42976;-43
2023/10/23 14:30:24;;;;;;;;;;;;;;;;;;112657;210;39039;-44
2023/10/23 14:33:00;;;;;;;;;;;;;;;;;;112572;210;39594;-43
2023/10/23 14:35:37;;;;;;;;;;;;;;;;;;112572;210;42789;-43
2023/10/23 14:38:11;;;;;;;;;;;;;;;;;;112626;210;175670;-42
2023/10/23 14:40:43;;;;;;;;;;;;;;;;;;112667;210;38918;-42
2023/10/23 14:43:18;;;;;;;;;;;;;;;;;;112541;210;39686;-43
2023/10/23 14:45:51;;;;;;;;;;;;;;;;;;112608;210;42880;-42
2023/10/23 14:48:28;;;;;;;;;;;;;;;;;;112621;210;41824;-42
2023/10/23 14:51:01;;;;;;;;;;;;;;;;;;112662;211;39021;-46
2023/10/23 14:53:35;;;;;;;;;;;;;;;;;;112612;210;40840;-43
2023/10/23 14:56:15;;;;;;;;;;;;;;;;;;112628;210;44053;-43
2023/10/23 14:58:48;;;;;;;;;;;;;;;;;;112583;210;42044;-42
2023/10/23 15:01:21;;;;;;;;;;;;;;;;;;112615;210;38706;-43
2023/10/23 15:03:55;;;;;;;;;;;;;;;;;;112591;210;39952;-43
2023/10/23 15:06:30;;;;;;;;;;;;;;;;;;112585;211;42955;-43
2023/10/23 15:09:05;;;;;;;;;;;;;;;;;;112549;210;41662;-43
2023/10/23 15:11:39;;;;;;;;;;;;;;;;;;112593;210;39988;-44
2023/10/23 15:14:12;;;;;;;;;;;;;;;;;;112594;210;40990;-43
2023/10/23 15:16:49;;;;;;;;;;;;;;;;;;112589;210;42708;-43
2023/10/23 15:19:24;;;;;;;;;;;;;;;;;;112630;210;41609;-44
2023/10/23 15:22:01;;;;;;;;;;;;;;;;;;112632;210;39786;-43
2023/10/23 15:24:36;;;;;;;;;;;;;;;;;;112549;210;39419;-43
2023/10/23 15:27:11;;;;;;;;;;;;;;;;;;112614;210;43287;-43
2023/10/23 15:29:43;;;;;;;;;;;;;;;;;;112664;210;43038;-44
2023/10/23 15:32:15;;;;;;;;;;;;;;;;;;112615;210;38840;-46
2023/10/23 15:34:51;;;;;;;;;;;;;;;;;;112578;210;39748;-48
2023/10/23 15:37:23;;;;;;;;;;;;;;;;;;112636;211;42827;-45
2023/10/23 15:39:57;;;;;;;;;;;;;;;;;;112646;210;41656;-44
2023/10/23 15:42:34;;;;;;;;;;;;;;;;;;112642;211;38454;-43
2023/10/23 15:45:12;;;;;;;;;;;;;;;;;;112627;210;40683;-43
2023/10/23 15:47:45;;;;;;;;;;;;;;;;;;112650;210;44000;-44
2023/10/23 15:50:19;;;;;;;;;;;;;;;;;;112677;210;41901;-44
2023/10/23 15:52:54;;;;;;;;;;;;;;;;;;112676;210;38838;-43
2023/10/23 15:55:35;;;;;;;;;;;;;;;;;;112552;210;39814;-45
2023/10/23 15:58:12;;;;;;;;;;;;;;;;;;112649;210;43149;-44
2023/10/23 16:00:46;;;;;;;;;;;;;;;;;;112600;210;42666;-44
2023/10/23 16:03:21;;;;;;;;;;;;;;;;;;112621;210;38837;-45
2023/10/23 16:06:00;;;;;;;;;;;;;;;;;;112565;210;39332;-43
2023/10/23 16:08:36;;;;;;;;;;;;;;;;;;112679;210;42971;-43
2023/10/23 16:11:10;;;;;;;;;;;;;;;;;;112626;210;43024;-44
2023/10/23 16:13:47;;;;;;;;;;;;;;;;;;112609;210;39005;-44
2023/10/23 16:16:27;;;;;;;;;;;;;;;;;;112549;210;39604;-43
2023/10/23 16:19:00;;;;;;;;;;;;;;;;;;112603;210;42948;-45
2023/10/23 16:21:37;;;;;;;;;;;;;;;;;;112627;210;41747;-44
2023/10/23 16:24:10;;;;;;;;;;;;;;;;;;112639;210;38800;-43
2023/10/23 16:26:44;;;;;;;;;;;;;;;;;;112472;210;193326;-44
2023/10/23 16:29:20;;;;;;;;;;;;;;;;;;112652;210;43288;-44
2023/10/23 16:31:52;;;;;;;;;;;;;;;;;;112622;211;41616;-44
2023/10/23 16:34:25;;;;;;;;;;;;;;;;;;112593;210;38687;-43
2023/10/23 16:37:01;;;;;;;;;;;;;;;;;;112663;211;45983;-44
2023/10/23 16:39:36;;;;;;;;;;;;;;;;;;112473;210;196293;-43
2023/10/23 16:42:10;;;;;;;;;;;;;;;;;;112650;210;41773;-43
2023/10/23 16:44:41;;;;;;;;;;;;;;;;;;112462;211;39237;-43
2023/10/23 16:47:26;;;;;;;;;;;;;;;;;;112553;210;45525;-43
2023/10/23 16:49:59;;;;;;;;;;;;;;;;;;112594;210;42832;-43
2023/10/23 16:52:36;;;;;;;;;;;;;;;;;;112611;210;41703;-44
2023/10/23 16:55:10;;;;;;;;;;;;;;;;;;112589;210;40075;-45
2023/10/23 16:57:43;;;;;;;;;;;;;;;;;;112569;210;46595;-42
2023/10/23 17:00:21;;;;;;;;;;;;;;;;;;112614;210;42818;-41
2023/10/23 17:02:57;;;;;;;;;;;;;;;;;;112445;210;41849;-42
2023/10/23 17:05:36;;;;;;;;;;;;;;;;;;112518;210;39656;-41
2023/10/23 17:08:15;;;;;;;;;;;;;;;;;;112579;210;46726;-42
2023/10/23 17:10:51;;;;;;;;;;;;;;;;;;112563;210;42892;-41
2023/10/23 17:13:27;;;;;;;;;;;;;;;;;;112587;210;41553;-44
2023/10/23 17:16:06;;;;;;;;;;;;;;;;;;112524;210;38491;-41
2023/10/23 17:18:40;;;;;;;;;;;;;;;;;;112545;210;39653;-44
2023/10/23 17:21:17;;;;;;;;;;;;;;;;;;112470;210;42954;-46
2023/10/23 17:23:51;;;;;;;;;;;;;;;;;;112578;210;41717;-39
2023/10/23 17:26:28;;;;;;;;;;;;;;;;;;112580;210;38716;-39
2023/10/23 17:29:04;;;;;;;;;;;;;;;;;;112566;210;39668;-42
2023/10/23 17:31:42;;;;;;;;;;;;;;;;;;112590;210;42805;-42
2023/10/23 17:34:17;;;;;;;;;;;;;;;;;;112571;210;41578;-42
2023/10/23 17:36:55;;;;;;;;;;;;;;;;;;112442;210;38411;-40